sensor_id;sensor_type;location;lat;lon;timestamp;P1;durP1;ratioP1;P2;durP2;ratioP2
52266;SDS011;38223;50.940;4.034;2023-06-19T00:02:18;4.58;;;3.37;;
52266;SDS011;38223;50.940;4.034;2023-06-19T00:04:48;4.05;;;3.10;;
52266;SDS011;38223;50.940;4.034;2023-06-19T00:07:23;3.20;;;2.90;;
52266;SDS011;38223;50.940;4.034;2023-06-19T00:09:53;3.30;;;2.98;;
52266;SDS011;38223;50.940;4.034;2023-06-19T00:12:26;3.37;;;3.08;;
52266;SDS011;38223;50.940;4.034;2023-06-19T00:14:59;4.75;;;2.87;;
52266;SDS011;38223;50.940;4.034;2023-06-19T00:17:31;5.28;;;3.15;;
52266;SDS011;38223;50.940;4.034;2023-06-19T00:20:05;3.42;;;3.12;;
52266;SDS011;38223;50.940;4.034;2023-06-19T00:22:53;5.37;;;3.40;;
52266;SDS011;38223;50.940;4.034;2023-06-19T00:25:21;4.03;;;3.27;;
52266;SDS011;38223;50.940;4.034;2023-06-19T00:27:53;3.80;;;3.22;;
52266;SDS011;38223;50.940;4.034;2023-06-19T00:30:27;4.08;;;3.58;;
52266;SDS011;38223;50.940;4.034;2023-06-19T00:32:57;6.15;;;3.58;;
52266;SDS011;38223;50.940;4.034;2023-06-19T00:35:29;4.37;;;3.95;;
52266;SDS011;38223;50.940;4.034;2023-06-19T00:38:01;8.28;;;3.35;;
52266;SDS011;38223;50.940;4.034;2023-06-19T00:40:33;4.30;;;3.77;;
52266;SDS011;38223;50.940;4.034;2023-06-19T00:43:02;4.72;;;4.20;;
52266;SDS011;38223;50.940;4.034;2023-06-19T00:45:35;4.53;;;4.03;;
52266;SDS011;38223;50.940;4.034;2023-06-19T00:48:07;4.12;;;3.72;;
52266;SDS011;38223;50.940;4.034;2023-06-19T00:50:36;7.65;;;3.85;;
52266;SDS011;38223;50.940;4.034;2023-06-19T00:53:11;4.78;;;3.80;;
52266;SDS011;38223;50.940;4.034;2023-06-19T00:55:44;4.97;;;4.33;;
52266;SDS011;38223;50.940;4.034;2023-06-19T00:58:19;7.40;;;4.03;;
52266;SDS011;38223;50.940;4.034;2023-06-19T01:00:53;6.83;;;4.25;;
52266;SDS011;38223;50.940;4.034;2023-06-19T01:03:26;8.98;;;4.42;;
52266;SDS011;38223;50.940;4.034;2023-06-19T01:06:00;5.65;;;4.08;;
52266;SDS011;38223;50.940;4.034;2023-06-19T01:11:20;4.90;;;4.40;;
52266;SDS011;38223;50.940;4.034;2023-06-19T01:13:58;5.17;;;4.78;;
52266;SDS011;38223;50.940;4.034;2023-06-19T01:16:42;5.65;;;4.60;;
52266;SDS011;38223;50.940;4.034;2023-06-19T01:19:15;5.25;;;4.17;;
52266;SDS011;38223;50.940;4.034;2023-06-19T01:21:48;9.08;;;4.83;;
52266;SDS011;38223;50.940;4.034;2023-06-19T01:24:20;5.83;;;5.30;;
52266;SDS011;38223;50.940;4.034;2023-06-19T01:26:53;9.40;;;5.28;;
52266;SDS011;38223;50.940;4.034;2023-06-19T01:29:25;7.28;;;4.83;;
52266;SDS011;38223;50.940;4.034;2023-06-19T01:32:02;8.68;;;4.90;;
52266;SDS011;38223;50.940;4.034;2023-06-19T01:34:33;7.50;;;5.03;;
52266;SDS011;38223;50.940;4.034;2023-06-19T01:37:10;6.53;;;5.17;;
52266;SDS011;38223;50.940;4.034;2023-06-19T01:39:41;7.10;;;5.65;;
52266;SDS011;38223;50.940;4.034;2023-06-19T01:42:14;7.90;;;4.87;;
52266;SDS011;38223;50.940;4.034;2023-06-19T01:44:50;6.33;;;5.62;;
52266;SDS011;38223;50.940;4.034;2023-06-19T01:47:22;8.18;;;5.30;;
52266;SDS011;38223;50.940;4.034;2023-06-19T01:49:52;8.85;;;6.10;;
52266;SDS011;38223;50.940;4.034;2023-06-19T01:52:23;7.67;;;6.65;;
52266;SDS011;38223;50.940;4.034;2023-06-19T01:54:56;7.62;;;6.08;;
52266;SDS011;38223;50.940;4.034;2023-06-19T01:57:30;8.75;;;5.78;;
52266;SDS011;38223;50.940;4.034;2023-06-19T02:00:03;7.40;;;6.17;;
52266;SDS011;38223;50.940;4.034;2023-06-19T02:02:34;7.70;;;6.10;;
52266;SDS011;38223;50.940;4.034;2023-06-19T02:05:06;10.65;;;7.00;;
52266;SDS011;38223;50.940;4.034;2023-06-19T02:07:37;7.30;;;6.47;;
52266;SDS011;38223;50.940;4.034;2023-06-19T02:10:10;8.45;;;6.97;;
52266;SDS011;38223;50.940;4.034;2023-06-19T02:12:37;7.70;;;6.60;;
52266;SDS011;38223;50.940;4.034;2023-06-19T02:15:12;10.90;;;7.33;;
52266;SDS011;38223;50.940;4.034;2023-06-19T02:17:45;7.37;;;6.60;;
52266;SDS011;38223;50.940;4.034;2023-06-19T02:20:16;8.13;;;7.17;;
52266;SDS011;38223;50.940;4.034;2023-06-19T02:22:47;9.65;;;7.08;;
52266;SDS011;38223;50.940;4.034;2023-06-19T02:25:20;7.78;;;7.17;;
52266;SDS011;38223;50.940;4.034;2023-06-19T02:27:54;7.17;;;6.35;;
52266;SDS011;38223;50.940;4.034;2023-06-19T02:30:26;6.92;;;6.42;;
52266;SDS011;38223;50.940;4.034;2023-06-19T02:33:04;6.62;;;6.10;;
52266;SDS011;38223;50.940;4.034;2023-06-19T02:35:39;8.15;;;6.37;;
52266;SDS011;38223;50.940;4.034;2023-06-19T02:38:12;6.28;;;5.67;;
52266;SDS011;38223;50.940;4.034;2023-06-19T02:40:46;6.35;;;5.78;;
52266;SDS011;38223;50.940;4.034;2023-06-19T02:43:16;6.87;;;5.33;;
52266;SDS011;38223;50.940;4.034;2023-06-19T02:45:47;6.00;;;5.47;;
52266;SDS011;38223;50.940;4.034;2023-06-19T02:48:17;6.60;;;5.83;;
52266;SDS011;38223;50.940;4.034;2023-06-19T02:50:45;5.92;;;5.35;;
52266;SDS011;38223;50.940;4.034;2023-06-19T02:53:22;6.50;;;5.17;;
52266;SDS011;38223;50.940;4.034;2023-06-19T02:55:54;6.00;;;5.40;;
52266;SDS011;38223;50.940;4.034;2023-06-19T02:58:24;5.70;;;5.20;;
52266;SDS011;38223;50.940;4.034;2023-06-19T03:00:56;6.10;;;5.50;;
52266;SDS011;38223;50.940;4.034;2023-06-19T03:03:30;5.97;;;5.37;;
52266;SDS011;38223;50.940;4.034;2023-06-19T03:06:01;6.42;;;5.92;;
52266;SDS011;38223;50.940;4.034;2023-06-19T03:08:35;7.03;;;6.20;;
52266;SDS011;38223;50.940;4.034;2023-06-19T03:11:10;6.45;;;5.85;;
52266;SDS011;38223;50.940;4.034;2023-06-19T03:13:50;6.20;;;5.62;;
52266;SDS011;38223;50.940;4.034;2023-06-19T03:16:26;6.05;;;5.42;;
52266;SDS011;38223;50.940;4.034;2023-06-19T03:19:00;5.87;;;5.00;;
52266;SDS011;38223;50.940;4.034;2023-06-19T03:21:35;6.10;;;5.58;;
52266;SDS011;38223;50.940;4.034;2023-06-19T03:24:10;5.75;;;5.25;;
52266;SDS011;38223;50.940;4.034;2023-06-19T03:26:50;6.15;;;5.55;;
52266;SDS011;38223;50.940;4.034;2023-06-19T03:29:21;6.53;;;5.42;;
52266;SDS011;38223;50.940;4.034;2023-06-19T03:31:55;6.30;;;5.70;;
52266;SDS011;38223;50.940;4.034;2023-06-19T03:34:25;7.05;;;6.05;;
52266;SDS011;38223;50.940;4.034;2023-06-19T03:37:03;7.47;;;6.58;;
52266;SDS011;38223;50.940;4.034;2023-06-19T03:39:33;6.92;;;6.20;;
52266;SDS011;38223;50.940;4.034;2023-06-19T03:42:05;6.37;;;5.87;;
52266;SDS011;38223;50.940;4.034;2023-06-19T03:44:37;7.65;;;6.62;;
52266;SDS011;38223;50.940;4.034;2023-06-19T03:47:11;7.08;;;6.47;;
52266;SDS011;38223;50.940;4.034;2023-06-19T03:49:41;7.42;;;6.83;;
52266;SDS011;38223;50.940;4.034;2023-06-19T03:52:13;7.70;;;7.00;;
52266;SDS011;38223;50.940;4.034;2023-06-19T03:57:11;8.30;;;7.28;;
52266;SDS011;38223;50.940;4.034;2023-06-19T03:59:40;9.15;;;7.53;;
52266;SDS011;38223;50.940;4.034;2023-06-19T04:02:15;9.03;;;7.97;;
52266;SDS011;38223;50.940;4.034;2023-06-19T04:04:47;8.55;;;7.70;;
52266;SDS011;38223;50.940;4.034;2023-06-19T04:09:52;9.43;;;8.60;;
52266;SDS011;38223;50.940;4.034;2023-06-19T04:12:23;10.48;;;9.03;;
52266;SDS011;38223;50.940;4.034;2023-06-19T04:14:57;9.85;;;9.08;;
52266;SDS011;38223;50.940;4.034;2023-06-19T04:17:31;11.53;;;9.33;;
52266;SDS011;38223;50.940;4.034;2023-06-19T04:20:01;10.80;;;9.90;;
52266;SDS011;38223;50.940;4.034;2023-06-19T04:22:36;10.45;;;9.45;;
52266;SDS011;38223;50.940;4.034;2023-06-19T04:25:07;11.18;;;10.05;;
52266;SDS011;38223;50.940;4.034;2023-06-19T04:27:42;11.18;;;10.25;;
52266;SDS011;38223;50.940;4.034;2023-06-19T04:30:13;11.63;;;10.75;;
52266;SDS011;38223;50.940;4.034;2023-06-19T04:32:46;12.00;;;10.90;;
52266;SDS011;38223;50.940;4.034;2023-06-19T04:35:18;18.75;;;11.55;;
52266;SDS011;38223;50.940;4.034;2023-06-19T04:37:50;13.80;;;12.50;;
52266;SDS011;38223;50.940;4.034;2023-06-19T04:40:23;12.58;;;11.40;;
52266;SDS011;38223;50.940;4.034;2023-06-19T04:43:01;13.28;;;12.07;;
52266;SDS011;38223;50.940;4.034;2023-06-19T04:45:34;13.88;;;11.93;;
52266;SDS011;38223;50.940;4.034;2023-06-19T04:50:37;13.80;;;12.47;;
52266;SDS011;38223;50.940;4.034;2023-06-19T04:53:11;13.38;;;12.10;;
52266;SDS011;38223;50.940;4.034;2023-06-19T04:55:44;14.75;;;12.30;;
52266;SDS011;38223;50.940;4.034;2023-06-19T04:58:19;14.87;;;13.40;;
52266;SDS011;38223;50.940;4.034;2023-06-19T05:00:53;14.63;;;13.32;;
52266;SDS011;38223;50.940;4.034;2023-06-19T05:03:35;14.55;;;13.08;;
52266;SDS011;38223;50.940;4.034;2023-06-19T05:06:09;16.07;;;14.47;;
52266;SDS011;38223;50.940;4.034;2023-06-19T05:08:44;16.32;;;14.70;;
52266;SDS011;38223;50.940;4.034;2023-06-19T05:11:25;16.00;;;14.30;;
52266;SDS011;38223;50.940;4.034;2023-06-19T05:13:55;15.60;;;14.05;;
52266;SDS011;38223;50.940;4.034;2023-06-19T05:16:30;17.42;;;15.63;;
52266;SDS011;38223;50.940;4.034;2023-06-19T05:19:04;17.85;;;16.17;;
52266;SDS011;38223;50.940;4.034;2023-06-19T05:21:36;17.23;;;15.75;;
52266;SDS011;38223;50.940;4.034;2023-06-19T05:24:09;17.87;;;16.02;;
52266;SDS011;38223;50.940;4.034;2023-06-19T05:29:29;18.75;;;16.90;;
52266;SDS011;38223;50.940;4.034;2023-06-19T05:32:02;16.87;;;15.15;;
52266;SDS011;38223;50.940;4.034;2023-06-19T05:34:40;18.57;;;15.78;;
52266;SDS011;38223;50.940;4.034;2023-06-19T05:37:13;17.57;;;15.93;;
52266;SDS011;38223;50.940;4.034;2023-06-19T05:39:47;17.65;;;15.93;;
52266;SDS011;38223;50.940;4.034;2023-06-19T05:42:19;17.02;;;15.63;;
52266;SDS011;38223;50.940;4.034;2023-06-19T05:44:50;16.87;;;15.25;;
52266;SDS011;38223;50.940;4.034;2023-06-19T05:47:19;18.62;;;15.38;;
52266;SDS011;38223;50.940;4.034;2023-06-19T05:52:18;17.25;;;15.72;;
52266;SDS011;38223;50.940;4.034;2023-06-19T05:54:48;17.62;;;15.83;;
52266;SDS011;38223;50.940;4.034;2023-06-19T05:57:16;17.90;;;16.05;;
52266;SDS011;38223;50.940;4.034;2023-06-19T05:59:47;18.57;;;16.77;;
52266;SDS011;38223;50.940;4.034;2023-06-19T06:02:19;17.82;;;16.02;;
52266;SDS011;38223;50.940;4.034;2023-06-19T06:04:50;15.28;;;14.05;;
52266;SDS011;38223;50.940;4.034;2023-06-19T06:07:20;16.90;;;15.30;;
52266;SDS011;38223;50.940;4.034;2023-06-19T06:09:50;19.27;;;15.70;;
52266;SDS011;38223;50.940;4.034;2023-06-19T06:12:20;17.92;;;16.10;;
52266;SDS011;38223;50.940;4.034;2023-06-19T06:14:49;17.67;;;15.97;;
52266;SDS011;38223;50.940;4.034;2023-06-19T06:17:19;19.57;;;16.40;;
52266;SDS011;38223;50.940;4.034;2023-06-19T06:19:50;18.35;;;16.48;;
52266;SDS011;38223;50.940;4.034;2023-06-19T06:22:22;16.97;;;15.32;;
52266;SDS011;38223;50.940;4.034;2023-06-19T06:24:54;18.87;;;17.10;;
52266;SDS011;38223;50.940;4.034;2023-06-19T06:27:24;17.42;;;15.83;;
52266;SDS011;38223;50.940;4.034;2023-06-19T06:29:56;17.15;;;15.55;;
52266;SDS011;38223;50.940;4.034;2023-06-19T06:32:30;17.25;;;15.05;;
52266;SDS011;38223;50.940;4.034;2023-06-19T06:34:59;17.77;;;15.83;;
52266;SDS011;38223;50.940;4.034;2023-06-19T06:37:32;18.23;;;15.10;;
52266;SDS011;38223;50.940;4.034;2023-06-19T06:40:08;16.85;;;14.83;;
52266;SDS011;38223;50.940;4.034;2023-06-19T06:42:38;16.43;;;14.83;;
52266;SDS011;38223;50.940;4.034;2023-06-19T06:45:11;16.23;;;14.83;;
52266;SDS011;38223;50.940;4.034;2023-06-19T06:47:58;16.17;;;14.55;;
52266;SDS011;38223;50.940;4.034;2023-06-19T06:50:25;16.55;;;14.85;;
52266;SDS011;38223;50.940;4.034;2023-06-19T06:52:58;17.35;;;15.35;;
52266;SDS011;38223;50.940;4.034;2023-06-19T06:55:32;16.35;;;14.95;;
52266;SDS011;38223;50.940;4.034;2023-06-19T06:58:04;16.32;;;14.63;;
52266;SDS011;38223;50.940;4.034;2023-06-19T07:00:34;17.82;;;15.25;;
52266;SDS011;38223;50.940;4.034;2023-06-19T07:03:01;19.12;;;14.98;;
52266;SDS011;38223;50.940;4.034;2023-06-19T07:05:29;16.17;;;14.63;;
52266;SDS011;38223;50.940;4.034;2023-06-19T07:08:05;15.83;;;14.25;;
52266;SDS011;38223;50.940;4.034;2023-06-19T07:10:35;16.15;;;14.55;;
52266;SDS011;38223;50.940;4.034;2023-06-19T07:13:03;16.45;;;14.95;;
52266;SDS011;38223;50.940;4.034;2023-06-19T07:15:39;17.73;;;13.48;;
52266;SDS011;38223;50.940;4.034;2023-06-19T07:18:09;13.43;;;12.25;;
52266;SDS011;38223;50.940;4.034;2023-06-19T07:20:38;15.05;;;13.65;;
52266;SDS011;38223;50.940;4.034;2023-06-19T07:23:11;16.85;;;13.60;;
52266;SDS011;38223;50.940;4.034;2023-06-19T07:25:45;14.20;;;12.70;;
52266;SDS011;38223;50.940;4.034;2023-06-19T07:28:17;13.68;;;12.28;;
52266;SDS011;38223;50.940;4.034;2023-06-19T07:30:48;16.42;;;12.20;;
52266;SDS011;38223;50.940;4.034;2023-06-19T07:33:21;13.70;;;12.50;;
52266;SDS011;38223;50.940;4.034;2023-06-19T07:35:50;16.07;;;14.58;;
52266;SDS011;38223;50.940;4.034;2023-06-19T07:38:23;12.55;;;11.65;;
52266;SDS011;38223;50.940;4.034;2023-06-19T07:41:00;13.48;;;12.18;;
52266;SDS011;38223;50.940;4.034;2023-06-19T07:43:34;14.03;;;12.25;;
52266;SDS011;38223;50.940;4.034;2023-06-19T07:46:07;14.43;;;12.07;;
52266;SDS011;38223;50.940;4.034;2023-06-19T07:48:43;12.70;;;11.40;;
52266;SDS011;38223;50.940;4.034;2023-06-19T07:51:22;14.05;;;12.47;;
52266;SDS011;38223;50.940;4.034;2023-06-19T07:53:57;14.07;;;12.80;;
52266;SDS011;38223;50.940;4.034;2023-06-19T07:56:32;13.10;;;11.88;;
52266;SDS011;38223;50.940;4.034;2023-06-19T07:59:10;12.63;;;11.35;;
52266;SDS011;38223;50.940;4.034;2023-06-19T08:01:42;14.18;;;11.18;;
52266;SDS011;38223;50.940;4.034;2023-06-19T08:04:10;12.07;;;10.68;;
52266;SDS011;38223;50.940;4.034;2023-06-19T08:06:40;13.20;;;11.63;;
52266;SDS011;38223;50.940;4.034;2023-06-19T08:09:13;11.43;;;10.32;;
52266;SDS011;38223;50.940;4.034;2023-06-19T08:11:47;13.10;;;11.78;;
52266;SDS011;38223;50.940;4.034;2023-06-19T08:16:57;13.37;;;11.27;;
52266;SDS011;38223;50.940;4.034;2023-06-19T08:19:24;11.93;;;10.73;;
52266;SDS011;38223;50.940;4.034;2023-06-19T08:21:54;11.60;;;10.40;;
52266;SDS011;38223;50.940;4.034;2023-06-19T08:24:25;13.98;;;10.70;;
52266;SDS011;38223;50.940;4.034;2023-06-19T08:26:54;14.53;;;10.35;;
52266;SDS011;38223;50.940;4.034;2023-06-19T08:29:30;11.75;;;10.68;;
52266;SDS011;38223;50.940;4.034;2023-06-19T08:32:01;11.57;;;10.38;;
52266;SDS011;38223;50.940;4.034;2023-06-19T08:34:34;12.60;;;11.35;;
52266;SDS011;38223;50.940;4.034;2023-06-19T08:37:06;11.50;;;10.38;;
52266;SDS011;38223;50.940;4.034;2023-06-19T08:39:35;11.30;;;10.25;;
52266;SDS011;38223;50.940;4.034;2023-06-19T08:42:09;12.03;;;11.00;;
52266;SDS011;38223;50.940;4.034;2023-06-19T08:44:40;13.03;;;11.33;;
52266;SDS011;38223;50.940;4.034;2023-06-19T08:47:08;16.15;;;11.10;;
52266;SDS011;38223;50.940;4.034;2023-06-19T08:49:40;12.25;;;10.93;;
52266;SDS011;38223;50.940;4.034;2023-06-19T08:52:11;13.38;;;11.33;;
52266;SDS011;38223;50.940;4.034;2023-06-19T08:54:44;11.03;;;9.95;;
52266;SDS011;38223;50.940;4.034;2023-06-19T08:57:21;12.95;;;10.75;;
52266;SDS011;38223;50.940;4.034;2023-06-19T08:59:56;14.50;;;10.90;;
52266;SDS011;38223;50.940;4.034;2023-06-19T09:02:35;13.40;;;12.23;;
52266;SDS011;38223;50.940;4.034;2023-06-19T09:05:12;13.30;;;12.05;;
52266;SDS011;38223;50.940;4.034;2023-06-19T09:07:54;13.85;;;12.45;;
52266;SDS011;38223;50.940;4.034;2023-06-19T09:10:26;14.60;;;13.13;;
52266;SDS011;38223;50.940;4.034;2023-06-19T09:15:26;14.15;;;12.25;;
52266;SDS011;38223;50.940;4.034;2023-06-19T09:20:38;14.35;;;13.10;;
52266;SDS011;38223;50.940;4.034;2023-06-19T09:23:10;13.35;;;12.05;;
52266;SDS011;38223;50.940;4.034;2023-06-19T09:25:46;13.75;;;12.50;;
52266;SDS011;38223;50.940;4.034;2023-06-19T09:28:21;12.60;;;11.38;;
52266;SDS011;38223;50.940;4.034;2023-06-19T09:30:57;12.50;;;11.50;;
52266;SDS011;38223;50.940;4.034;2023-06-19T09:33:26;12.28;;;10.98;;
52266;SDS011;38223;50.940;4.034;2023-06-19T09:36:01;11.38;;;10.28;;
52266;SDS011;38223;50.940;4.034;2023-06-19T09:38:33;12.25;;;9.73;;
52266;SDS011;38223;50.940;4.034;2023-06-19T09:41:08;10.95;;;9.15;;
52266;SDS011;38223;50.940;4.034;2023-06-19T09:43:43;11.40;;;9.70;;
52266;SDS011;38223;50.940;4.034;2023-06-19T09:46:15;10.35;;;9.05;;
52266;SDS011;38223;50.940;4.034;2023-06-19T09:48:48;12.23;;;10.95;;
52266;SDS011;38223;50.940;4.034;2023-06-19T09:51:25;11.20;;;10.00;;
52266;SDS011;38223;50.940;4.034;2023-06-19T09:54:00;11.75;;;8.95;;
52266;SDS011;38223;50.940;4.034;2023-06-19T09:56:30;12.80;;;9.25;;
52266;SDS011;38223;50.940;4.034;2023-06-19T09:58:59;13.68;;;8.60;;
52266;SDS011;38223;50.940;4.034;2023-06-19T10:01:27;10.60;;;9.38;;
52266;SDS011;38223;50.940;4.034;2023-06-19T10:04:06;10.48;;;9.40;;
52266;SDS011;38223;50.940;4.034;2023-06-19T10:06:45;9.80;;;8.78;;
52266;SDS011;38223;50.940;4.034;2023-06-19T10:09:16;11.50;;;9.28;;
52266;SDS011;38223;50.940;4.034;2023-06-19T10:11:46;11.33;;;10.40;;
52266;SDS011;38223;50.940;4.034;2023-06-19T10:14:20;11.97;;;10.88;;
52266;SDS011;38223;50.940;4.034;2023-06-19T10:16:52;13.10;;;9.98;;
52266;SDS011;38223;50.940;4.034;2023-06-19T10:21:50;15.93;;;10.75;;
52266;SDS011;38223;50.940;4.034;2023-06-19T10:24:20;16.35;;;10.95;;
52266;SDS011;38223;50.940;4.034;2023-06-19T10:29:37;12.73;;;11.38;;
52266;SDS011;38223;50.940;4.034;2023-06-19T10:32:07;11.55;;;10.08;;
52266;SDS011;38223;50.940;4.034;2023-06-19T10:34:44;12.85;;;11.15;;
52266;SDS011;38223;50.940;4.034;2023-06-19T10:37:17;16.62;;;11.30;;
52266;SDS011;38223;50.940;4.034;2023-06-19T10:39:48;13.15;;;11.95;;
52266;SDS011;38223;50.940;4.034;2023-06-19T10:42:15;13.80;;;12.50;;
52266;SDS011;38223;50.940;4.034;2023-06-19T10:44:44;14.83;;;13.53;;
52266;SDS011;38223;50.940;4.034;2023-06-19T10:47:14;16.73;;;14.20;;
52266;SDS011;38223;50.940;4.034;2023-06-19T10:49:46;13.15;;;11.80;;
52266;SDS011;38223;50.940;4.034;2023-06-19T10:52:14;14.58;;;13.13;;
52266;SDS011;38223;50.940;4.034;2023-06-19T10:54:43;15.18;;;13.70;;
52266;SDS011;38223;50.940;4.034;2023-06-19T10:57:12;13.57;;;12.10;;
52266;SDS011;38223;50.940;4.034;2023-06-19T10:59:43;13.85;;;11.63;;
52266;SDS011;38223;50.940;4.034;2023-06-19T11:02:11;12.73;;;10.43;;
52266;SDS011;38223;50.940;4.034;2023-06-19T11:04:41;24.75;;;16.80;;
52266;SDS011;38223;50.940;4.034;2023-06-19T11:07:10;12.85;;;10.50;;
52266;SDS011;38223;50.940;4.034;2023-06-19T11:12:08;12.40;;;8.75;;
52266;SDS011;38223;50.940;4.034;2023-06-19T11:14:37;10.18;;;9.18;;
52266;SDS011;38223;50.940;4.034;2023-06-19T11:19:35;15.35;;;8.20;;
52266;SDS011;38223;50.940;4.034;2023-06-19T11:22:06;9.00;;;7.67;;
52266;SDS011;38223;50.940;4.034;2023-06-19T11:24:42;8.15;;;7.35;;
52266;SDS011;38223;50.940;4.034;2023-06-19T11:27:19;9.38;;;8.25;;
52266;SDS011;38223;50.940;4.034;2023-06-19T11:29:54;8.15;;;7.45;;
52266;SDS011;38223;50.940;4.034;2023-06-19T11:32:32;7.97;;;7.28;;
52266;SDS011;38223;50.940;4.034;2023-06-19T11:35:06;13.83;;;7.35;;
52266;SDS011;38223;50.940;4.034;2023-06-19T11:37:42;8.78;;;7.00;;
52266;SDS011;38223;50.940;4.034;2023-06-19T11:42:48;7.25;;;6.50;;
52266;SDS011;38223;50.940;4.034;2023-06-19T11:45:19;11.93;;;6.92;;
52266;SDS011;38223;50.940;4.034;2023-06-19T11:47:48;8.25;;;6.78;;
52266;SDS011;38223;50.940;4.034;2023-06-19T11:50:16;11.85;;;7.22;;
52266;SDS011;38223;50.940;4.034;2023-06-19T11:52:46;7.62;;;6.90;;
52266;SDS011;38223;50.940;4.034;2023-06-19T11:55:16;10.10;;;6.72;;
52266;SDS011;38223;50.940;4.034;2023-06-19T11:57:45;8.18;;;7.15;;
52266;SDS011;38223;50.940;4.034;2023-06-19T12:03:17;8.45;;;7.20;;
52266;SDS011;38223;50.940;4.034;2023-06-19T12:05:47;8.53;;;7.60;;
52266;SDS011;38223;50.940;4.034;2023-06-19T12:08:14;11.18;;;7.72;;
52266;SDS011;38223;50.940;4.034;2023-06-19T12:10:42;13.43;;;9.53;;
52266;SDS011;38223;50.940;4.034;2023-06-19T12:13:10;9.50;;;8.70;;
52266;SDS011;38223;50.940;4.034;2023-06-19T12:15:38;8.10;;;7.20;;
52266;SDS011;38223;50.940;4.034;2023-06-19T12:18:06;21.90;;;20.00;;
52266;SDS011;38223;50.940;4.034;2023-06-19T12:20:35;15.00;;;12.35;;
52266;SDS011;38223;50.940;4.034;2023-06-19T12:23:04;10.88;;;7.95;;
52266;SDS011;38223;50.940;4.034;2023-06-19T12:25:32;9.18;;;6.72;;
52266;SDS011;38223;50.940;4.034;2023-06-19T12:28:01;9.47;;;7.27;;
52266;SDS011;38223;50.940;4.034;2023-06-19T12:30:30;10.80;;;7.10;;
52266;SDS011;38223;50.940;4.034;2023-06-19T12:32:58;8.80;;;7.40;;
52266;SDS011;38223;50.940;4.034;2023-06-19T12:35:27;7.47;;;6.73;;
52266;SDS011;38223;50.940;4.034;2023-06-19T12:37:56;9.50;;;6.87;;
52266;SDS011;38223;50.940;4.034;2023-06-19T12:40:24;10.68;;;7.03;;
52266;SDS011;38223;50.940;4.034;2023-06-19T12:42:55;13.20;;;6.83;;
52266;SDS011;38223;50.940;4.034;2023-06-19T12:45:28;9.53;;;5.97;;
52266;SDS011;38223;50.940;4.034;2023-06-19T12:48:00;7.15;;;6.37;;
52266;SDS011;38223;50.940;4.034;2023-06-19T12:50:28;9.07;;;6.33;;
52266;SDS011;38223;50.940;4.034;2023-06-19T12:53:01;7.00;;;6.33;;
52266;SDS011;38223;50.940;4.034;2023-06-19T12:55:26;8.03;;;5.78;;
52266;SDS011;38223;50.940;4.034;2023-06-19T12:58:01;7.20;;;6.53;;
52266;SDS011;38223;50.940;4.034;2023-06-19T13:00:30;9.80;;;6.35;;
52266;SDS011;38223;50.940;4.034;2023-06-19T13:03:03;6.90;;;6.20;;
52266;SDS011;38223;50.940;4.034;2023-06-19T13:05:37;7.30;;;6.40;;
52266;SDS011;38223;50.940;4.034;2023-06-19T13:08:08;8.75;;;6.95;;
52266;SDS011;38223;50.940;4.034;2023-06-19T13:10:41;7.40;;;6.45;;
52266;SDS011;38223;50.940;4.034;2023-06-19T13:13:11;7.25;;;6.30;;
52266;SDS011;38223;50.940;4.034;2023-06-19T13:15:46;7.05;;;6.37;;
52266;SDS011;38223;50.940;4.034;2023-06-19T13:18:15;9.98;;;5.78;;
52266;SDS011;38223;50.940;4.034;2023-06-19T13:20:49;7.97;;;6.42;;
52266;SDS011;38223;50.940;4.034;2023-06-19T13:23:21;8.35;;;6.08;;
52266;SDS011;38223;50.940;4.034;2023-06-19T13:25:54;6.62;;;5.95;;
52266;SDS011;38223;50.940;4.034;2023-06-19T13:28:25;7.33;;;5.50;;
52266;SDS011;38223;50.940;4.034;2023-06-19T13:30:54;9.13;;;5.20;;
52266;SDS011;38223;50.940;4.034;2023-06-19T13:33:23;13.07;;;6.30;;
52266;SDS011;38223;50.940;4.034;2023-06-19T13:35:56;5.97;;;5.47;;
52266;SDS011;38223;50.940;4.034;2023-06-19T13:38:29;9.23;;;5.53;;
52266;SDS011;38223;50.940;4.034;2023-06-19T13:41:04;8.73;;;5.92;;
52266;SDS011;38223;50.940;4.034;2023-06-19T13:43:36;6.83;;;6.22;;
52266;SDS011;38223;50.940;4.034;2023-06-19T13:46:09;11.03;;;6.10;;
52266;SDS011;38223;50.940;4.034;2023-06-19T13:48:41;6.90;;;5.67;;
52266;SDS011;38223;50.940;4.034;2023-06-19T13:51:11;7.42;;;5.95;;
52266;SDS011;38223;50.940;4.034;2023-06-19T13:56:30;5.95;;;5.22;;
52266;SDS011;38223;50.940;4.034;2023-06-19T13:59:02;6.78;;;6.10;;
52266;SDS011;38223;50.940;4.034;2023-06-19T14:04:19;10.68;;;5.45;;
52266;SDS011;38223;50.940;4.034;2023-06-19T14:06:50;7.15;;;5.85;;
52266;SDS011;38223;50.940;4.034;2023-06-19T14:09:23;9.10;;;5.37;;
52266;SDS011;38223;50.940;4.034;2023-06-19T14:11:56;9.80;;;5.62;;
52266;SDS011;38223;50.940;4.034;2023-06-19T14:14:25;8.15;;;6.35;;
52266;SDS011;38223;50.940;4.034;2023-06-19T14:16:56;6.20;;;5.62;;
52266;SDS011;38223;50.940;4.034;2023-06-19T14:19:26;14.33;;;5.87;;
52266;SDS011;38223;50.940;4.034;2023-06-19T14:21:58;10.85;;;5.33;;
52266;SDS011;38223;50.940;4.034;2023-06-19T14:24:29;9.78;;;5.42;;
52266;SDS011;38223;50.940;4.034;2023-06-19T14:27:01;7.53;;;5.10;;
52266;SDS011;38223;50.940;4.034;2023-06-19T14:29:33;8.68;;;5.12;;
52266;SDS011;38223;50.940;4.034;2023-06-19T14:32:27;10.00;;;5.03;;
52266;SDS011;38223;50.940;4.034;2023-06-19T14:34:59;8.70;;;5.35;;
52266;SDS011;38223;50.940;4.034;2023-06-19T14:37:36;6.70;;;5.72;;
52266;SDS011;38223;50.940;4.034;2023-06-19T14:40:04;9.13;;;5.35;;
52266;SDS011;38223;50.940;4.034;2023-06-19T14:42:35;5.58;;;5.17;;
52266;SDS011;38223;50.940;4.034;2023-06-19T14:45:11;5.37;;;4.12;;
52266;SDS011;38223;50.940;4.034;2023-06-19T14:47:40;3.55;;;3.25;;
52266;SDS011;38223;50.940;4.034;2023-06-19T14:50:10;7.33;;;4.72;;
52266;SDS011;38223;50.940;4.034;2023-06-19T14:52:42;5.75;;;4.20;;
52266;SDS011;38223;50.940;4.034;2023-06-19T14:55:14;7.08;;;5.30;;
52266;SDS011;38223;50.940;4.034;2023-06-19T14:57:43;7.60;;;5.05;;
52266;SDS011;38223;50.940;4.034;2023-06-19T15:02:41;7.30;;;4.65;;
52266;SDS011;38223;50.940;4.034;2023-06-19T15:05:11;10.15;;;5.25;;
52266;SDS011;38223;50.940;4.034;2023-06-19T15:07:40;8.60;;;5.08;;
52266;SDS011;38223;50.940;4.034;2023-06-19T15:10:10;9.33;;;4.95;;
52266;SDS011;38223;50.940;4.034;2023-06-19T15:12:42;6.97;;;4.95;;
52266;SDS011;38223;50.940;4.034;2023-06-19T15:15:13;7.53;;;4.55;;
52266;SDS011;38223;50.940;4.034;2023-06-19T15:17:46;5.62;;;4.80;;
52266;SDS011;38223;50.940;4.034;2023-06-19T15:20:15;5.70;;;4.67;;
52266;SDS011;38223;50.940;4.034;2023-06-19T15:22:46;7.22;;;4.60;;
52266;SDS011;38223;50.940;4.034;2023-06-19T15:25:20;8.35;;;4.65;;
52266;SDS011;38223;50.940;4.034;2023-06-19T15:27:51;5.15;;;4.67;;
52266;SDS011;38223;50.940;4.034;2023-06-19T15:30:26;6.55;;;4.92;;
52266;SDS011;38223;50.940;4.034;2023-06-19T15:33:01;5.15;;;4.60;;
52266;SDS011;38223;50.940;4.034;2023-06-19T15:35:31;7.60;;;4.67;;
52266;SDS011;38223;50.940;4.034;2023-06-19T15:38:02;5.03;;;4.53;;
52266;SDS011;38223;50.940;4.034;2023-06-19T15:40:33;6.90;;;4.78;;
52266;SDS011;38223;50.940;4.034;2023-06-19T15:43:04;4.90;;;4.50;;
52266;SDS011;38223;50.940;4.034;2023-06-19T15:45:38;5.60;;;4.90;;
52266;SDS011;38223;50.940;4.034;2023-06-19T15:48:08;4.87;;;4.45;;
52266;SDS011;38223;50.940;4.034;2023-06-19T15:50:38;5.30;;;4.80;;
52266;SDS011;38223;50.940;4.034;2023-06-19T15:53:09;4.80;;;4.40;;